createdAt,value
2018-05-21T00:00:34.567Z,887.15
2018-05-21T00:01:34.557Z,887.15
2018-05-21T00:02:34.543Z,887.14
2018-05-21T00:03:34.529Z,887.13
2018-05-21T00:04:34.520Z,887.12
2018-05-21T00:05:34.506Z,887.10
2018-05-21T00:06:34.504Z,887.13
2018-05-21T00:07:34.483Z,887.12
2018-05-21T00:08:34.467Z,887.10
2018-05-21T00:09:34.457Z,887.14
2018-05-21T00:10:34.449Z,887.10
2018-05-21T00:11:34.431Z,887.14
2018-05-21T00:12:34.419Z,887.11
2018-05-21T00:13:34.409Z,887.14
2018-05-21T00:14:34.394Z,887.12
2018-05-21T00:15:34.418Z,887.10
2018-05-21T00:16:34.379Z,887.11
2018-05-21T00:17:34.363Z,887.12
2018-05-21T00:18:34.347Z,887.10
2018-05-21T00:19:34.345Z,887.10
2018-05-21T00:20:34.329Z,887.10
2018-05-21T00:21:34.319Z,887.08
2018-05-21T00:22:34.305Z,887.09
2018-05-21T00:23:34.290Z,887.02
2018-05-21T00:24:34.277Z,887.05
2018-05-21T00:25:34.268Z,887.06
2018-05-21T00:26:34.252Z,887.08
2018-05-21T00:27:34.243Z,887.14
2018-05-21T00:28:34.226Z,887.14
2018-05-21T00:29:34.220Z,887.15
2018-05-21T00:30:34.205Z,887.18
2018-05-21T00:31:34.197Z,887.15
2018-05-21T00:32:34.181Z,887.16
2018-05-21T00:33:34.169Z,887.11
2018-05-21T00:34:34.159Z,887.12
2018-05-21T00:35:34.151Z,887.12
2018-05-21T00:36:34.151Z,887.11
2018-05-21T00:37:34.129Z,887.12
2018-05-21T00:38:34.118Z,887.11
2018-05-21T00:39:34.101Z,887.12
2018-05-21T00:40:34.089Z,887.11
2018-05-21T00:41:34.076Z,887.11
2018-05-21T00:42:34.060Z,887.15
2018-05-21T00:43:34.065Z,887.13
2018-05-21T00:44:34.042Z,887.11
2018-05-21T00:45:34.030Z,887.11
2018-05-21T00:46:34.020Z,887.16
2018-05-21T00:47:34.005Z,887.18
2018-05-21T00:48:33.994Z,887.18
2018-05-21T00:49:33.980Z,887.18
2018-05-21T00:50:33.968Z,887.18
2018-05-21T00:51:33.954Z,887.17
2018-05-21T00:52:33.944Z,887.16
2018-05-21T00:53:33.934Z,887.18
2018-05-21T00:54:33.931Z,887.16
2018-05-21T00:55:33.909Z,887.16
2018-05-21T00:56:33.893Z,887.18
2018-05-21T00:57:33.881Z,887.20
2018-05-21T00:58:33.869Z,887.18
2018-05-21T00:59:33.859Z,887.16
2018-05-21T01:00:33.849Z,887.19
2018-05-21T01:01:33.836Z,887.20
2018-05-21T01:02:33.823Z,887.21
2018-05-21T01:03:33.811Z,887.19
2018-05-21T01:04:33.805Z,887.21
2018-05-21T01:05:33.788Z,887.19
2018-05-21T01:06:33.776Z,887.17
2018-05-21T01:07:33.758Z,887.15
2018-05-21T01:08:33.755Z,887.18
2018-05-21T01:09:33.742Z,887.13
2018-05-21T01:10:33.732Z,887.15
2018-05-21T01:11:33.717Z,887.17
2018-05-21T01:12:33.706Z,887.17
2018-05-21T01:13:33.688Z,887.15
2018-05-21T01:14:33.679Z,887.19
2018-05-21T01:15:33.667Z,887.19
2018-05-21T01:16:33.653Z,887.20
2018-05-21T01:17:33.644Z,887.22
2018-05-21T01:18:33.632Z,887.20
2018-05-21T01:19:33.619Z,887.22
2018-05-21T01:20:33.604Z,887.23
2018-05-21T01:21:33.592Z,887.24
2018-05-21T01:22:33.579Z,887.27
2018-05-21T01:23:33.569Z,887.28
2018-05-21T01:24:33.557Z,887.30
2018-05-21T01:25:33.545Z,887.29
2018-05-21T01:26:33.534Z,887.34
2018-05-21T01:27:33.514Z,887.36
2018-05-21T01:28:33.508Z,887.35
2018-05-21T01:29:33.498Z,887.35
2018-05-21T01:30:33.484Z,887.30
2018-05-21T01:31:33.474Z,887.31
2018-05-21T01:32:33.457Z,887.31
2018-05-21T01:33:33.448Z,887.29
2018-05-21T01:34:33.435Z,887.29
2018-05-21T01:35:33.425Z,887.30
2018-05-21T01:36:33.412Z,887.31
2018-05-21T01:37:33.400Z,887.28
2018-05-21T01:38:33.385Z,887.33
2018-05-21T01:39:33.373Z,887.30
2018-05-21T01:40:33.363Z,887.34
2018-05-21T01:41:33.345Z,887.30
2018-05-21T01:42:33.335Z,887.33
2018-05-21T01:43:33.329Z,887.36
2018-05-21T01:44:33.316Z,887.34
2018-05-21T01:45:33.300Z,887.39
2018-05-21T01:46:33.287Z,887.39
2018-05-21T01:47:33.275Z,887.38
2018-05-21T01:48:33.261Z,887.39
2018-05-21T01:49:33.253Z,887.39
2018-05-21T01:50:33.242Z,887.40
2018-05-21T01:51:33.228Z,887.39
2018-05-21T01:52:33.220Z,887.37
2018-05-21T01:53:33.202Z,887.36
2018-05-21T01:54:33.191Z,887.34
2018-05-21T01:55:33.177Z,887.30
2018-05-21T01:56:33.168Z,887.30
2018-05-21T01:57:33.156Z,887.32
2018-05-21T01:58:33.143Z,887.32
2018-05-21T01:59:33.130Z,887.32
2018-05-21T02:00:33.118Z,887.31
2018-05-21T02:01:33.108Z,887.26
2018-05-21T02:02:33.091Z,887.30
2018-05-21T02:03:33.086Z,887.28
2018-05-21T02:04:33.073Z,887.27
2018-05-21T02:05:33.056Z,887.31
2018-05-21T02:06:33.046Z,887.28
2018-05-21T02:07:33.029Z,887.30
2018-05-21T02:08:33.067Z,887.26
2018-05-21T02:09:33.012Z,887.25
2018-05-21T02:10:33.001Z,887.24
2018-05-21T02:11:32.983Z,887.21
2018-05-21T02:12:32.974Z,887.21
2018-05-21T02:13:32.955Z,887.20
2018-05-21T02:14:32.950Z,887.19
2018-05-21T02:15:32.939Z,887.22
2018-05-21T02:16:32.925Z,887.21
2018-05-21T02:17:32.913Z,887.21
2018-05-21T02:18:32.899Z,887.19
2018-05-21T02:19:32.887Z,887.18
2018-05-21T02:20:32.913Z,887.18
2018-05-21T02:21:32.864Z,887.21
2018-05-21T02:22:32.850Z,887.18
2018-05-21T02:23:32.835Z,887.17
2018-05-21T02:24:32.828Z,887.21
2018-05-21T02:25:32.811Z,887.21
2018-05-21T02:26:32.800Z,887.22
2018-05-21T02:27:32.791Z,887.21
2018-05-21T02:28:32.778Z,887.21
2018-05-21T02:29:32.772Z,887.21
2018-05-21T02:30:32.750Z,887.18
2018-05-21T02:31:32.747Z,887.19
2018-05-21T02:32:32.732Z,887.20
2018-05-21T02:33:32.712Z,887.15
2018-05-21T02:34:32.716Z,887.13
2018-05-21T02:35:32.691Z,887.11
2018-05-21T02:36:32.680Z,887.11
2018-05-21T02:37:32.666Z,887.14
2018-05-21T02:38:32.654Z,887.08
2018-05-21T02:39:32.646Z,887.09
2018-05-21T02:40:32.632Z,887.13
2018-05-21T02:41:32.623Z,887.13
2018-05-21T02:42:32.606Z,887.16
2018-05-21T02:43:32.594Z,887.16
2018-05-21T02:44:32.584Z,887.19
2018-05-21T02:45:32.569Z,887.17
2018-05-21T02:46:32.563Z,887.15
2018-05-21T02:47:32.550Z,887.17
2018-05-21T02:48:32.538Z,887.17
2018-05-21T02:49:32.527Z,887.17
2018-05-21T02:50:32.508Z,887.17
2018-05-21T02:51:32.496Z,887.19
2018-05-21T02:52:32.487Z,887.17
2018-05-21T02:53:32.476Z,887.17
2018-05-21T02:54:32.457Z,887.14
2018-05-21T02:55:32.449Z,887.18
2018-05-21T02:56:32.439Z,887.18
2018-05-21T02:57:32.425Z,887.17
2018-05-21T02:58:32.417Z,887.15
2018-05-21T02:59:32.400Z,887.17
2018-05-21T03:00:32.388Z,887.17
2018-05-21T03:01:32.370Z,887.14
2018-05-21T03:02:32.365Z,887.12
2018-05-21T03:03:32.351Z,887.11
2018-05-21T03:04:32.339Z,887.15
2018-05-21T03:05:32.325Z,887.10
2018-05-21T03:06:32.317Z,887.16
2018-05-21T03:07:32.305Z,887.16
2018-05-21T03:08:32.294Z,887.12
2018-05-21T03:09:32.281Z,887.16
2018-05-21T03:10:32.267Z,887.12
2018-05-21T03:11:32.252Z,887.14
2018-05-21T03:12:32.240Z,887.10
2018-05-21T03:13:32.271Z,887.11
2018-05-21T03:14:32.216Z,887.14
2018-05-21T03:15:32.205Z,887.14
2018-05-21T03:16:32.194Z,887.15
2018-05-21T03:17:32.183Z,887.17
2018-05-21T03:18:32.167Z,887.18
2018-05-21T03:19:32.153Z,887.19
2018-05-21T03:20:32.148Z,887.17
2018-05-21T03:21:32.131Z,887.20
2018-05-21T03:22:32.123Z,887.15
2018-05-21T03:23:32.113Z,887.15
2018-05-21T03:24:32.103Z,887.15
2018-05-21T03:25:32.081Z,887.16
2018-05-21T03:26:32.070Z,887.13
2018-05-21T03:27:32.059Z,887.16
2018-05-21T03:28:32.049Z,887.13
2018-05-21T03:29:32.037Z,887.13
2018-05-21T03:30:32.023Z,887.08
2018-05-21T03:31:32.007Z,887.09
2018-05-21T03:32:31.997Z,887.07
2018-05-21T03:33:31.989Z,887.06
2018-05-21T03:34:31.975Z,887.09
2018-05-21T03:35:31.962Z,887.09
2018-05-21T03:36:31.956Z,887.08
2018-05-21T03:37:31.938Z,887.06
2018-05-21T03:38:31.922Z,887.13
2018-05-21T03:39:31.913Z,887.10
2018-05-21T03:40:31.900Z,887.14
2018-05-21T03:41:31.890Z,887.12
2018-05-21T03:42:31.868Z,887.13
2018-05-21T03:43:31.861Z,887.12
2018-05-21T03:44:31.853Z,887.14
2018-05-21T03:45:31.868Z,887.13
2018-05-21T03:46:31.823Z,887.13
2018-05-21T03:47:31.813Z,887.10
2018-05-21T03:48:31.801Z,887.13
2018-05-21T03:49:31.791Z,887.12
2018-05-21T03:50:31.771Z,887.13
2018-05-21T03:51:31.762Z,887.12
2018-05-21T03:52:31.752Z,887.13
2018-05-21T03:53:31.744Z,887.13
2018-05-21T03:54:31.728Z,887.16
2018-05-21T03:55:31.712Z,887.15
2018-05-21T03:56:31.699Z,887.16
2018-05-21T03:57:31.686Z,887.12
2018-05-21T03:58:31.682Z,887.13
2018-05-21T03:59:31.665Z,887.16
2018-05-21T04:00:31.647Z,887.16
2018-05-21T04:01:31.643Z,887.15
2018-05-21T04:02:31.632Z,887.17
2018-05-21T04:03:31.616Z,887.16
2018-05-21T04:04:31.704Z,887.13
2018-05-21T04:05:31.592Z,887.18
2018-05-21T04:06:31.576Z,887.17
2018-05-21T04:07:31.564Z,887.15
2018-05-21T04:08:31.551Z,887.17
2018-05-21T04:09:31.541Z,887.20
2018-05-21T04:10:31.533Z,887.20
2018-05-21T04:11:31.517Z,887.21
2018-05-21T04:12:31.504Z,887.19
2018-05-21T04:13:31.493Z,887.22
2018-05-21T04:14:31.484Z,887.22
2018-05-21T04:15:31.469Z,887.27
2018-05-21T04:16:31.457Z,887.26
2018-05-21T04:17:31.449Z,887.29
2018-05-21T04:18:31.431Z,887.29
2018-05-21T04:19:31.421Z,887.29
2018-05-21T04:20:31.404Z,887.28
2018-05-21T04:21:31.395Z,887.27
2018-05-21T04:22:31.385Z,887.30
2018-05-21T04:23:31.375Z,887.28
2018-05-21T04:24:31.356Z,887.27
2018-05-21T04:25:31.406Z,887.23
2018-05-21T04:26:31.331Z,887.28
2018-05-21T04:27:31.322Z,887.26
2018-05-21T04:28:31.310Z,887.27
2018-05-21T04:29:31.296Z,887.26
2018-05-21T04:30:31.286Z,887.30
2018-05-21T04:31:31.273Z,887.29
2018-05-21T04:32:31.259Z,887.31
2018-05-21T04:33:31.247Z,887.34
2018-05-21T04:34:31.228Z,887.31
2018-05-21T04:35:31.227Z,887.30
2018-05-21T04:36:31.235Z,887.32
2018-05-21T04:37:31.194Z,887.31
2018-05-21T04:38:31.188Z,887.26
2018-05-21T04:39:31.171Z,887.29
2018-05-21T04:40:31.159Z,887.29
2018-05-21T04:41:31.146Z,887.31
2018-05-21T04:42:31.134Z,887.31
2018-05-21T04:43:31.128Z,887.29
2018-05-21T04:44:31.112Z,887.25
2018-05-21T04:45:31.098Z,887.29
2018-05-21T04:46:31.084Z,887.30
2018-05-21T04:47:31.082Z,887.30
2018-05-21T04:48:31.084Z,887.33
2018-05-21T04:49:31.051Z,887.33
2018-05-21T04:50:31.038Z,887.33
2018-05-21T04:51:31.023Z,887.30
2018-05-21T04:52:31.010Z,887.33
2018-05-21T04:53:31.007Z,887.35
2018-05-21T04:54:30.989Z,887.36
2018-05-21T04:55:30.974Z,887.34
2018-05-21T04:56:30.966Z,887.40
2018-05-21T04:57:30.953Z,887.37
2018-05-21T04:58:30.944Z,887.37
2018-05-21T04:59:30.930Z,887.37
2018-05-21T05:00:30.916Z,887.33
2018-05-21T05:01:30.907Z,887.35
2018-05-21T05:02:30.886Z,887.30
2018-05-21T05:03:30.880Z,887.38
2018-05-21T05:04:30.873Z,887.35
2018-05-21T05:05:30.852Z,887.33
2018-05-21T05:06:30.840Z,887.38
2018-05-21T05:07:30.831Z,887.37
2018-05-21T05:08:30.815Z,887.38
2018-05-21T05:09:30.803Z,887.37
2018-05-21T05:10:30.793Z,887.33
2018-05-21T05:11:30.783Z,887.33
2018-05-21T05:12:30.763Z,887.35
2018-05-21T05:13:30.754Z,887.34
2018-05-21T05:14:30.742Z,887.32
2018-05-21T05:15:30.730Z,887.32
2018-05-21T05:16:30.720Z,887.31
2018-05-21T05:17:30.709Z,887.29
2018-05-21T05:18:30.688Z,887.32
2018-05-21T05:19:30.683Z,887.31
2018-05-21T05:20:30.674Z,887.31
2018-05-21T05:21:30.657Z,887.30
2018-05-21T05:22:30.641Z,887.27
2018-05-21T05:23:30.633Z,887.26
2018-05-21T05:24:30.619Z,887.24
2018-05-21T05:25:30.610Z,887.25
2018-05-21T05:26:30.661Z,887.20
2018-05-21T05:27:30.582Z,887.22
2018-05-21T05:28:30.569Z,887.21
2018-05-21T05:29:30.559Z,887.22
2018-05-21T05:30:30.546Z,887.21
2018-05-21T05:31:30.533Z,887.18
2018-05-21T05:32:30.524Z,887.18
2018-05-21T05:33:30.507Z,887.14
2018-05-21T05:34:30.502Z,887.15
2018-05-21T05:35:30.481Z,887.17
2018-05-21T05:36:30.473Z,887.12
2018-05-21T05:37:30.457Z,887.12
2018-05-21T05:38:30.448Z,887.11
2018-05-21T05:39:30.437Z,887.11
2018-05-21T05:40:30.418Z,887.08
2018-05-21T05:41:30.410Z,887.08
2018-05-21T05:42:30.393Z,887.07
2018-05-21T05:43:30.382Z,887.07
2018-05-21T05:44:30.381Z,887.06
2018-05-21T05:45:30.363Z,887.05
2018-05-21T05:46:30.346Z,886.99
2018-05-21T05:47:30.334Z,887.00
2018-05-21T05:48:30.325Z,887.02
2018-05-21T05:49:30.310Z,887.00
2018-05-21T05:50:30.292Z,887.01
2018-05-21T05:51:30.286Z,886.99
2018-05-21T05:52:30.272Z,886.98
2018-05-21T05:53:30.263Z,886.98
2018-05-21T05:54:30.246Z,886.94
2018-05-21T05:55:30.245Z,886.97
2018-05-21T05:56:30.230Z,886.95
2018-05-21T05:57:30.212Z,886.97
2018-05-21T05:58:30.197Z,886.94
2018-05-21T05:59:30.187Z,886.97
2018-05-21T06:00:30.178Z,886.93
2018-05-21T06:01:30.160Z,886.96
2018-05-21T06:02:30.151Z,886.97
2018-05-21T06:03:30.140Z,886.95
2018-05-21T06:04:30.122Z,886.94
2018-05-21T06:05:30.113Z,886.92
2018-05-21T06:06:30.101Z,886.88
2018-05-21T06:07:30.090Z,886.94
2018-05-21T06:08:30.081Z,886.86
2018-05-21T06:09:30.074Z,886.89
2018-05-21T06:10:30.051Z,886.85
2018-05-21T06:11:30.043Z,886.84
2018-05-21T06:12:30.027Z,886.87
2018-05-21T06:13:30.019Z,886.85
2018-05-21T06:14:30.003Z,886.84
2018-05-21T06:15:30.000Z,886.80
2018-05-21T06:16:29.986Z,886.80
2018-05-21T06:17:29.968Z,886.82
2018-05-21T06:18:29.955Z,886.82
2018-05-21T06:19:29.945Z,886.79
2018-05-21T06:20:29.930Z,886.80
2018-05-21T06:21:29.921Z,886.77
2018-05-21T06:22:29.908Z,886.81
2018-05-21T06:23:29.899Z,886.76
2018-05-21T06:24:29.884Z,886.76
2018-05-21T06:25:29.875Z,886.74
2018-05-21T06:26:29.863Z,886.73
2018-05-21T06:27:29.853Z,886.74
2018-05-21T06:28:29.833Z,886.71
2018-05-21T06:29:29.825Z,886.72
2018-05-21T06:30:29.817Z,886.72
2018-05-21T06:31:29.806Z,886.72
2018-05-21T06:32:29.794Z,886.68
2018-05-21T06:33:29.782Z,886.67
2018-05-21T06:34:29.809Z,886.68
2018-05-21T06:35:29.757Z,886.70
2018-05-21T06:36:29.745Z,886.75
2018-05-21T06:37:29.735Z,886.71
2018-05-21T06:38:29.725Z,886.74
2018-05-21T06:39:29.712Z,886.73
2018-05-21T06:40:29.702Z,886.73
2018-05-21T06:41:29.690Z,886.72
2018-05-21T06:42:29.682Z,886.77
2018-05-21T06:43:29.662Z,886.74
2018-05-21T06:44:29.660Z,886.80
2018-05-21T06:45:29.706Z,886.79
2018-05-21T06:46:29.630Z,886.80
2018-05-21T06:47:29.625Z,886.77
2018-05-21T06:48:29.611Z,886.77
2018-05-21T06:49:29.597Z,886.75
2018-05-21T06:50:29.589Z,886.76
2018-05-21T06:51:29.573Z,886.75
2018-05-21T06:52:29.568Z,886.76
2018-05-21T06:53:29.556Z,886.72
2018-05-21T06:54:29.549Z,886.77
2018-05-21T06:55:29.535Z,886.72
2018-05-21T06:56:29.520Z,886.73
2018-05-21T06:57:29.514Z,886.74
2018-05-21T06:58:29.503Z,886.75
2018-05-21T06:59:29.488Z,886.69
2018-05-21T07:00:29.484Z,886.71
2018-05-21T07:01:29.470Z,886.72
2018-05-21T07:02:29.457Z,886.74
2018-05-21T07:03:29.446Z,886.74
2018-05-21T07:04:29.438Z,886.76
2018-05-21T07:05:29.427Z,886.76
2018-05-21T07:06:29.415Z,886.73
2018-05-21T07:07:29.412Z,886.76
2018-05-21T07:08:29.394Z,886.74
2018-05-21T07:09:29.390Z,886.73
2018-05-21T07:10:29.369Z,886.69
2018-05-21T07:11:29.365Z,886.72
2018-05-21T07:12:29.354Z,886.75
2018-05-21T07:13:29.338Z,886.74
2018-05-21T07:14:29.336Z,886.72
2018-05-21T07:15:29.318Z,886.73
2018-05-21T07:16:29.309Z,886.72
2018-05-21T07:17:29.304Z,886.69
2018-05-21T07:18:29.287Z,886.70
2018-05-21T07:19:29.284Z,886.68
2018-05-21T07:20:29.266Z,886.72
2018-05-21T07:21:29.265Z,886.73
2018-05-21T07:22:29.247Z,886.75
2018-05-21T07:23:29.238Z,886.72
2018-05-21T07:24:29.281Z,886.74
2018-05-21T07:25:29.216Z,886.67
2018-05-21T07:26:29.208Z,886.70
2018-05-21T07:27:29.193Z,886.67
2018-05-21T07:28:29.189Z,886.66
2018-05-21T07:29:29.183Z,886.65
2018-05-21T07:30:29.169Z,886.68
2018-05-21T07:31:29.215Z,886.68
2018-05-21T07:32:29.188Z,886.67
2018-05-21T07:33:29.140Z,886.64
2018-05-21T07:34:29.124Z,886.67
2018-05-21T07:35:29.118Z,886.66
2018-05-21T07:36:29.112Z,886.63
2018-05-21T07:37:29.100Z,886.61
2018-05-21T07:38:29.093Z,886.59
2018-05-21T07:39:29.088Z,886.59
2018-05-21T07:40:29.072Z,886.60
2018-05-21T07:41:29.060Z,886.61
2018-05-21T07:42:29.055Z,886.58
2018-05-21T07:43:29.047Z,886.51
2018-05-21T07:44:29.031Z,886.55
2018-05-21T07:45:29.037Z,886.52
2018-05-21T07:46:29.015Z,886.50
2018-05-21T07:47:29.009Z,886.51
2018-05-21T07:48:29.000Z,886.49
2018-05-21T07:49:28.990Z,886.49
2018-05-21T07:50:28.986Z,886.46
2018-05-21T07:51:29.005Z,886.47
2018-05-21T07:52:28.958Z,886.49
2018-05-21T07:53:28.948Z,886.44
2018-05-21T07:54:28.944Z,886.47
2018-05-21T07:55:28.931Z,886.45
2018-05-21T07:56:28.914Z,886.43
2018-05-21T07:57:28.912Z,886.42
2018-05-21T07:58:28.902Z,886.42
2018-05-21T07:59:28.896Z,886.38
2018-05-21T08:00:28.887Z,886.40
2018-05-21T08:01:28.875Z,886.37
2018-05-21T08:02:28.872Z,886.35
2018-05-21T08:03:28.857Z,886.34
2018-05-21T08:04:28.851Z,886.33
2018-05-21T08:05:28.837Z,886.32
2018-05-21T08:06:28.829Z,886.31
2018-05-21T08:07:28.823Z,886.33
2018-05-21T08:08:28.814Z,886.32
2018-05-21T08:09:28.797Z,886.31
2018-05-21T08:10:28.796Z,886.31
2018-05-21T08:11:28.782Z,886.29
2018-05-21T08:12:28.779Z,886.28
2018-05-21T08:13:28.766Z,886.28
2018-05-21T08:14:28.775Z,886.23
2018-05-21T08:15:28.748Z,886.27
2018-05-21T08:16:28.741Z,886.24
2018-05-21T08:17:28.733Z,886.26
2018-05-21T08:18:28.725Z,886.24
2018-05-21T08:19:28.716Z,886.21
2018-05-21T08:20:28.707Z,886.23
2018-05-21T08:21:28.699Z,886.21
2018-05-21T08:22:28.687Z,886.18
2018-05-21T08:23:28.681Z,886.18
2018-05-21T08:24:28.676Z,886.17
2018-05-21T08:25:28.660Z,886.15
2018-05-21T08:26:28.647Z,886.12
2018-05-21T08:27:28.649Z,886.14
2018-05-21T08:28:28.636Z,886.13
2018-05-21T08:29:28.626Z,886.16
2018-05-21T08:30:28.616Z,886.12
2018-05-21T08:31:28.611Z,886.10
2018-05-21T08:32:28.599Z,886.08
2018-05-21T08:33:28.596Z,886.06
2018-05-21T08:34:28.583Z,886.07
2018-05-21T08:35:28.575Z,886.04
2018-05-21T08:36:28.567Z,886.04
2018-05-21T08:37:28.564Z,885.99
2018-05-21T08:38:28.548Z,886.01
2018-05-21T08:39:28.540Z,886.01
2018-05-21T08:40:28.529Z,886.01
2018-05-21T08:41:28.531Z,886.00
2018-05-21T08:42:28.519Z,885.95
2018-05-21T08:43:28.503Z,885.95
2018-05-21T08:44:28.497Z,885.95
2018-05-21T08:45:28.487Z,885.94
2018-05-21T08:46:28.477Z,885.96
2018-05-21T08:47:28.472Z,885.93
2018-05-21T08:48:28.468Z,885.94
2018-05-21T08:49:28.454Z,885.91
2018-05-21T08:50:28.444Z,885.96
2018-05-21T08:51:28.436Z,885.93
2018-05-21T08:52:28.508Z,885.88
2018-05-21T08:53:28.422Z,885.89
2018-05-21T08:54:28.410Z,885.85
2018-05-21T08:55:28.409Z,885.85
2018-05-21T08:56:28.479Z,885.85
2018-05-21T08:57:28.387Z,885.83
2018-05-21T08:58:28.383Z,885.82
2018-05-21T08:59:28.367Z,885.83
2018-05-21T09:00:28.429Z,885.76
2018-05-21T09:01:28.353Z,885.83
2018-05-21T09:02:28.345Z,885.76
2018-05-21T09:03:28.338Z,885.73
2018-05-21T09:04:28.326Z,885.79
2018-05-21T09:05:28.318Z,885.80
2018-05-21T09:06:28.320Z,885.75
2018-05-21T09:07:28.304Z,885.76
2018-05-21T09:08:28.299Z,885.80
2018-05-21T09:09:28.290Z,885.77
2018-05-21T09:10:28.280Z,885.78
2018-05-21T09:11:28.271Z,885.73
2018-05-21T09:12:28.306Z,885.67
2018-05-21T09:13:28.251Z,885.60
2018-05-21T09:14:28.245Z,885.64
2018-05-21T09:15:28.242Z,885.61
2018-05-21T09:16:28.275Z,885.66
2018-05-21T09:17:28.227Z,885.63
2018-05-21T09:18:28.214Z,885.68
2018-05-21T09:19:28.211Z,885.66
2018-05-21T09:20:28.202Z,885.62
2018-05-21T09:21:28.193Z,885.63
2018-05-21T09:22:28.187Z,885.66
2018-05-21T09:23:28.175Z,885.64
2018-05-21T09:24:28.171Z,885.63
2018-05-21T09:25:28.163Z,885.66
2018-05-21T09:26:28.155Z,885.71
2018-05-21T09:27:28.146Z,885.66
2018-05-21T09:28:28.136Z,885.79
2018-05-21T09:29:28.135Z,885.61
2018-05-21T09:30:28.120Z,885.59
2018-05-21T09:31:28.183Z,885.62
2018-05-21T09:32:28.182Z,885.62
2018-05-21T09:33:28.098Z,885.60
2018-05-21T09:34:28.095Z,885.70
2018-05-21T09:35:28.082Z,885.61
2018-05-21T09:36:28.078Z,885.51
2018-05-21T09:37:28.069Z,885.55
2018-05-21T09:38:28.061Z,885.50
2018-05-21T09:39:28.054Z,885.54
2018-05-21T09:40:28.049Z,885.58
2018-05-21T09:41:28.037Z,885.57
2018-05-21T09:42:28.030Z,885.61
2018-05-21T09:43:28.024Z,885.55
2018-05-21T09:44:28.018Z,885.58
2018-05-21T09:45:28.007Z,885.56
2018-05-21T09:46:27.996Z,885.55
2018-05-21T09:47:27.993Z,885.53
2018-05-21T09:48:27.983Z,885.54
2018-05-21T09:49:27.978Z,885.66
2018-05-21T09:50:27.969Z,885.69
2018-05-21T09:51:27.968Z,885.65
2018-05-21T09:52:27.955Z,885.59
2018-05-21T09:53:27.952Z,885.56
2018-05-21T09:54:27.938Z,885.62
2018-05-21T09:55:27.936Z,885.59
2018-05-21T09:56:27.925Z,885.54
2018-05-21T09:57:27.926Z,885.54
2018-05-21T09:58:27.911Z,885.50
2018-05-21T09:59:27.904Z,885.46
2018-05-21T10:00:27.902Z,885.45
2018-05-21T10:01:27.887Z,885.45
2018-05-21T10:02:27.883Z,885.47
2018-05-21T10:03:27.877Z,885.49
2018-05-21T10:04:27.871Z,885.49
2018-05-21T10:05:27.863Z,885.48
2018-05-21T10:06:27.856Z,885.41
2018-05-21T10:07:27.838Z,885.41
2018-05-21T10:08:27.839Z,885.42
2018-05-21T10:09:27.834Z,885.47
2018-05-21T10:10:27.822Z,885.43
2018-05-21T10:11:27.817Z,885.40
2018-05-21T10:12:27.813Z,885.39
2018-05-21T10:13:27.810Z,885.38
2018-05-21T10:14:27.795Z,885.41
2018-05-21T10:15:27.790Z,885.39
2018-05-21T10:16:27.791Z,885.38
2018-05-21T10:17:27.778Z,885.39
2018-05-21T10:18:27.767Z,885.39
2018-05-21T10:19:27.812Z,885.35
2018-05-21T10:20:27.750Z,885.35
2018-05-21T10:21:27.756Z,885.29
2018-05-21T10:22:27.752Z,885.34
2018-05-21T10:23:27.735Z,885.31
2018-05-21T10:24:27.729Z,885.35
2018-05-21T10:25:27.723Z,885.36
2018-05-21T10:26:27.711Z,885.32
2018-05-21T10:27:27.707Z,885.30
2018-05-21T10:28:27.699Z,885.31
2018-05-21T10:29:27.694Z,885.33
2018-05-21T10:30:27.687Z,885.25
2018-05-21T10:31:27.679Z,885.33
2018-05-21T10:32:27.679Z,885.34
2018-05-21T10:33:27.670Z,885.31
2018-05-21T10:34:27.659Z,885.21
2018-05-21T10:35:27.654Z,885.26
2018-05-21T10:36:27.648Z,885.25
2018-05-21T10:37:27.640Z,885.32
2018-05-21T10:38:27.632Z,885.35
2018-05-21T10:39:27.634Z,885.33
2018-05-21T10:40:27.624Z,885.24
2018-05-21T10:41:27.611Z,885.28
2018-05-21T10:42:27.603Z,885.24
2018-05-21T10:43:27.595Z,885.30
2018-05-21T10:44:27.592Z,885.32
2018-05-21T10:45:27.585Z,885.30
2018-05-21T10:46:27.579Z,885.24
2018-05-21T10:47:27.586Z,885.24
2018-05-21T10:48:27.562Z,885.23
2018-05-21T10:49:27.558Z,885.23
2018-05-21T10:50:27.547Z,885.21
2018-05-21T10:51:27.562Z,885.18
2018-05-21T10:52:27.540Z,885.16
2018-05-21T10:53:27.529Z,885.14
2018-05-21T10:54:27.525Z,885.13
2018-05-21T10:55:27.518Z,885.15
2018-05-21T10:56:27.511Z,885.15
2018-05-21T10:57:27.510Z,885.14
2018-05-21T10:58:27.496Z,885.14
2018-05-21T10:59:27.494Z,885.15
2018-05-21T11:00:27.480Z,885.15
2018-05-21T11:01:27.480Z,885.13
2018-05-21T11:02:27.470Z,885.14
2018-05-21T11:03:27.468Z,885.13
2018-05-21T11:04:27.453Z,885.19
2018-05-21T11:05:27.449Z,885.11
2018-05-21T11:06:27.439Z,885.10
2018-05-21T11:07:27.439Z,885.15
2018-05-21T11:08:27.427Z,885.14
2018-05-21T11:09:27.417Z,885.11
2018-05-21T11:10:27.409Z,885.06
2018-05-21T11:11:27.406Z,885.06
2018-05-21T11:12:27.402Z,884.97
2018-05-21T11:13:27.400Z,885.00
2018-05-21T11:14:27.386Z,885.04
2018-05-21T11:15:27.377Z,885.02
2018-05-21T11:16:27.387Z,885.02
2018-05-21T11:17:27.370Z,885.06
2018-05-21T11:18:27.368Z,885.05
2018-05-21T11:19:27.352Z,885.08
2018-05-21T11:20:27.348Z,885.05
2018-05-21T11:21:27.337Z,885.01
2018-05-21T11:22:27.331Z,884.98
2018-05-21T11:23:27.326Z,885.02
2018-05-21T11:24:27.321Z,884.97
2018-05-21T11:25:27.320Z,884.96
2018-05-21T11:26:27.306Z,884.91
2018-05-21T11:27:27.301Z,884.94
2018-05-21T11:28:27.291Z,884.86
2018-05-21T11:29:27.291Z,884.85
2018-05-21T11:30:27.285Z,884.86
2018-05-21T11:31:27.279Z,884.84
2018-05-21T11:32:27.278Z,884.88
2018-05-21T11:33:27.268Z,884.87
2018-05-21T11:34:27.263Z,884.86
2018-05-21T11:35:27.252Z,884.89
2018-05-21T11:36:27.251Z,884.87
2018-05-21T11:37:27.246Z,884.89
2018-05-21T11:38:27.239Z,884.84
2018-05-21T11:39:27.233Z,884.82
2018-05-21T11:40:27.226Z,884.79
2018-05-21T11:41:27.222Z,884.81
2018-05-21T11:42:27.211Z,884.82
2018-05-21T11:43:27.205Z,884.78
2018-05-21T11:44:27.205Z,884.76
2018-05-21T11:45:27.195Z,884.74
2018-05-21T11:46:27.229Z,884.72
2018-05-21T11:47:27.186Z,884.67
2018-05-21T11:48:27.179Z,884.68
2018-05-21T11:49:27.171Z,884.69
2018-05-21T11:50:27.164Z,884.69
2018-05-21T11:51:27.164Z,884.68
2018-05-21T11:52:27.155Z,884.66
2018-05-21T11:53:27.152Z,884.63
2018-05-21T11:54:27.146Z,884.65
2018-05-21T11:55:27.143Z,884.65
2018-05-21T11:56:27.133Z,884.62
2018-05-21T11:57:27.125Z,884.59
2018-05-21T11:58:27.121Z,884.54
2018-05-21T11:59:27.120Z,884.56
2018-05-21T12:00:27.112Z,884.54
2018-05-21T12:01:27.112Z,884.55
2018-05-21T12:02:27.104Z,884.51
2018-05-21T12:03:27.096Z,884.52
2018-05-21T12:04:27.094Z,884.58
2018-05-21T12:05:27.084Z,884.46
2018-05-21T12:06:27.080Z,884.49
2018-05-21T12:07:27.077Z,884.47
2018-05-21T12:08:27.071Z,884.43
2018-05-21T12:09:27.065Z,884.44
2018-05-21T12:10:27.055Z,884.46
2018-05-21T12:11:27.058Z,884.42
2018-05-21T12:12:27.047Z,884.41
2018-05-21T12:13:27.127Z,884.38
2018-05-21T12:14:27.039Z,884.36
2018-05-21T12:15:27.033Z,884.35
2018-05-21T12:16:27.026Z,884.37
2018-05-21T12:17:27.022Z,884.38
2018-05-21T12:18:27.018Z,884.41
2018-05-21T12:19:27.020Z,884.36
2018-05-21T12:20:27.013Z,884.38
2018-05-21T12:21:27.008Z,884.36
2018-05-21T12:22:27.036Z,884.37
2018-05-21T12:23:26.988Z,884.36
2018-05-21T12:24:26.981Z,884.33
2018-05-21T12:25:26.979Z,884.33
2018-05-21T12:26:26.980Z,884.34
2018-05-21T12:27:26.969Z,884.36
2018-05-21T12:28:26.963Z,884.29